Time;durP1;ratioP1;P1;durP2;ratioP2;P2;SDS_P1;SDS_P2;PMS_P1;PMS_P2;Temp;Humidity;BMP_temperature;BMP_pressure;BME280_temperature;BME280_humidity;BME280_pressure;Samples;Min_cycle;Max_cycle;Signal;HPM_P1;HPM_P2
2022/02/01 00:01:37;;;;;;;2.43;2.00;;;5.20;99.90;;;;;;5023658;28;20421;-74
2022/02/01 00:04:03;;;;;;;4.60;1.67;;;5.20;99.90;;;;;;5005171;28;20450;-73
2022/02/01 00:09:14;;;;;;;2.30;1.90;;;5.20;99.90;;;;;;5023928;28;20445;-73
2022/02/01 00:33:35;;;;;;;1.90;1.70;;;5.10;99.90;;;;;;5027776;28;20863;-73
2022/02/01 00:36:07;;;;;;;3.63;1.97;;;5.10;99.90;;;;;;5027273;28;20956;-73
2022/02/01 00:38:41;;;;;;;3.00;1.57;;;5.20;99.90;;;;;;5009685;28;20445;-73
2022/02/01 00:41:08;;;;;;;1.60;1.50;;;5.10;99.90;;;;;;5027766;28;20405;-73
2022/02/01 00:43:34;;;;;;;5.43;1.87;;;5.20;99.90;;;;;;5026926;28;20957;-74
2022/02/01 00:46:02;;;;;;;1.50;1.40;;;5.20;99.90;;;;;;5027632;28;20556;-73
2022/02/01 00:48:29;;;;;;;2.23;1.60;;;5.20;99.90;;;;;;5027528;28;20232;-73
2022/02/01 00:50:55;;;;;;;2.80;2.07;;;5.10;99.90;;;;;;5027063;28;20453;-73
2022/02/01 00:53:26;;;;;;;3.03;1.83;;;5.00;99.90;;;;;;5027000;28;20436;-74
2022/02/01 00:55:56;;;;;;;1.97;1.70;;;4.90;99.90;;;;;;5026476;28;20215;-73
2022/02/01 00:58:22;;;;;;;3.40;1.90;;;4.90;99.90;;;;;;5026802;28;20516;-73
2022/02/01 01:00:49;;;;;;;2.47;1.70;;;4.70;99.90;;;;;;5027263;28;20425;-73
2022/02/01 01:03:15;;;;;;;2.67;1.70;;;4.70;99.90;;;;;;5026861;28;20417;-73
2022/02/01 01:05:41;;;;;;;1.97;1.77;;;4.70;99.90;;;;;;5026900;28;20420;-74
2022/02/01 01:08:07;;;;;;;3.50;1.70;;;4.70;99.90;;;;;;5026881;28;20445;-74
2022/02/01 01:10:34;;;;;;;3.30;2.00;;;4.70;99.90;;;;;;5008971;28;20273;-74
2022/02/01 01:13:42;;;;;;;3.03;1.87;;;4.70;99.90;;;;;;5008797;28;20183;-75
2022/02/01 01:16:07;;;;;;;2.80;1.90;;;4.70;99.90;;;;;;5024373;28;20526;-75
2022/02/01 01:43:36;;;;;;;4.30;2.70;;;4.90;99.90;;;;;;5025591;28;20417;-74
2022/02/01 01:54:00;;;;;;;5.97;2.30;;;5.00;99.90;;;;;;5026179;28;20842;-73
2022/02/01 01:56:26;;;;;;;6.00;2.50;;;5.00;99.90;;;;;;5026123;28;20765;-74
2022/02/01 01:58:52;;;;;;;8.23;3.53;;;5.00;99.90;;;;;;5025012;28;20839;-73
2022/02/01 02:01:18;;;;;;;8.00;2.50;;;5.00;99.90;;;;;;5008225;28;20965;-74
2022/02/01 02:03:45;;;;;;;5.60;2.70;;;5.00;99.90;;;;;;5025619;28;20206;-74
2022/02/01 02:06:13;;;;;;;6.40;2.53;;;5.00;99.90;;;;;;5025634;28;20850;-73
2022/02/01 02:08:46;;;;;;;7.40;3.00;;;4.90;99.90;;;;;;5025903;28;20414;-74
2022/02/01 02:14:20;;;;;;;3.53;2.40;;;4.90;99.90;;;;;;5025528;28;20573;-73
2022/02/01 02:17:00;;;;;;;4.63;2.57;;;4.90;99.90;;;;;;5025796;28;20437;-71
2022/02/01 02:19:29;;;;;;;4.87;2.90;;;4.90;99.90;;;;;;5007547;28;20988;-72
2022/02/01 02:21:58;;;;;;;6.70;3.80;;;5.00;99.90;;;;;;5024933;28;20509;-72
2022/02/01 02:24:28;;;;;;;8.00;2.60;;;4.90;99.90;;;;;;5025489;28;20922;-72
2022/02/01 02:26:55;;;;;;;5.83;2.90;;;4.80;99.90;;;;;;5025599;28;20428;-71
2022/02/01 02:29:21;;;;;;;4.93;2.40;;;4.70;99.90;;;;;;5024898;28;20460;-74
2022/02/01 02:31:47;;;;;;;5.53;2.20;;;4.60;99.90;;;;;;5025364;28;20418;-74
2022/02/01 02:34:16;;;;;;;3.63;2.60;;;4.70;99.90;;;;;;5025275;28;20457;-72
2022/02/01 02:36:55;;;;;;;8.40;3.73;;;4.70;99.90;;;;;;5024925;28;20422;-72
2022/02/01 02:42:28;;;;;;;4.17;2.30;;;4.70;99.90;;;;;;5025539;28;20444;-73
2022/02/01 02:45:09;;;;;;;8.97;3.53;;;4.70;99.90;;;;;;5024173;28;20957;-74
2022/02/01 02:47:35;;;;;;;8.30;2.97;;;4.80;99.90;;;;;;5024994;28;20421;-75
2022/02/01 02:50:02;;;;;;;7.67;2.50;;;4.80;99.90;;;;;;5024968;28;20865;-72
2022/02/01 02:52:28;;;;;;;9.83;3.93;;;4.80;99.90;;;;;;5024701;28;20476;-72
2022/02/01 02:54:58;;;;;;;4.70;2.87;;;4.60;99.90;;;;;;5007085;28;20450;-72
2022/02/01 02:57:24;;;;;;;5.40;2.80;;;4.80;99.90;;;;;;5006318;28;20418;-71
2022/02/01 02:59:50;;;;;;;6.57;3.10;;;4.80;99.90;;;;;;5023939;28;20957;-72
2022/02/01 03:02:16;;;;;;;7.60;2.83;;;4.80;99.90;;;;;;5006933;28;20425;-72
2022/02/01 03:04:42;;;;;;;7.77;2.80;;;4.70;99.90;;;;;;5024672;28;20572;-72
2022/02/01 03:07:08;;;;;;;9.40;3.23;;;4.60;99.90;;;;;;5024292;28;20215;-72
2022/02/01 03:09:40;;;;;;;13.53;3.30;;;4.70;99.90;;;;;;5024593;28;20454;-72
2022/02/01 03:12:06;;;;;;;11.00;4.10;;;4.70;99.90;;;;;;5024738;28;20260;-73
2022/02/01 03:14:56;;;;;;;12.17;3.63;;;4.80;99.90;;;;;;5024332;28;20456;-73
2022/02/01 03:19:46;;;;;;;6.53;2.80;;;4.70;99.90;;;;;;5024288;28;20414;-73
2022/02/01 03:20:09;;;;;;;7.87;2.90;;;4.80;99.90;;;;;;5024084;28;20406;-72
2022/02/01 03:22:34;;;;;;;11.90;3.67;;;4.80;99.90;;;;;;5024432;28;20406;-73
2022/02/01 03:25:01;;;;;;;10.63;3.07;;;4.70;99.90;;;;;;5024450;28;20440;-73
2022/02/01 03:27:27;;;;;;;9.73;3.20;;;4.80;99.90;;;;;;5006364;28;20536;-73
2022/02/01 03:29:53;;;;;;;10.57;3.17;;;4.80;99.90;;;;;;5024109;28;20457;-73
2022/02/01 03:32:22;;;;;;;10.27;3.83;;;4.70;99.90;;;;;;5006325;28;20183;-73
2022/02/01 03:34:50;;;;;;;10.70;3.13;;;4.80;99.90;;;;;;5023994;28;20215;-73
2022/02/01 03:37:16;;;;;;;11.80;3.70;;;4.80;99.90;;;;;;5024161;28;20430;-73
2022/02/01 03:39:42;;;;;;;7.33;2.90;;;4.70;99.90;;;;;;5024195;28;20420;-72
2022/02/01 03:42:09;;;;;;;11.07;3.33;;;4.70;99.90;;;;;;5024027;28;20428;-72
2022/02/01 03:44:34;;;;;;;8.33;3.40;;;4.60;99.90;;;;;;5023910;28;20442;-72
2022/02/01 03:47:01;;;;;;;6.13;2.93;;;4.60;99.90;;;;;;5006163;28;20440;-72
2022/02/01 03:49:35;;;;;;;10.37;3.13;;;4.60;99.90;;;;;;5024127;28;20237;-72
2022/02/01 03:52:03;;;;;;;10.50;3.23;;;4.60;99.90;;;;;;5005150;28;20458;-72
2022/02/01 03:54:30;;;;;;;14.93;4.00;;;4.70;99.90;;;;;;5005433;28;20513;-73
2022/02/01 03:56:57;;;;;;;12.40;4.00;;;4.70;99.90;;;;;;5006176;28;21106;-72
2022/02/01 03:59:23;;;;;;;10.20;3.20;;;4.90;99.90;;;;;;5023876;28;20922;-72
2022/02/01 04:01:51;;;;;;;15.03;4.03;;;4.80;99.90;;;;;;5023882;28;20421;-73
2022/02/01 04:04:17;;;;;;;12.20;3.90;;;4.70;99.90;;;;;;5023896;28;20437;-72
2022/02/01 04:06:42;;;;;;;15.73;4.30;;;4.80;99.90;;;;;;5023595;28;20464;-73
2022/02/01 04:09:08;;;;;;;9.63;3.20;;;4.80;99.90;;;;;;5023559;28;20225;-73
2022/02/01 04:11:33;;;;;;;5.90;2.50;;;5.00;99.90;;;;;;5023725;28;20560;-72
2022/02/01 04:13:59;;;;;;;5.60;3.20;;;4.90;99.90;;;;;;5023811;28;20580;-73
2022/02/01 04:16:25;;;;;;;14.47;3.37;;;4.80;99.90;;;;;;5006116;28;20990;-73
2022/02/01 04:18:50;;;;;;;6.80;3.10;;;4.80;99.90;;;;;;5023695;28;20354;-73
2022/02/01 04:21:16;;;;;;;8.37;2.87;;;4.70;99.90;;;;;;5023591;28;20208;-73
2022/02/01 04:23:42;;;;;;;11.40;2.97;;;4.80;99.90;;;;;;5023493;28;20674;-73
2022/02/01 04:26:07;;;;;;;9.07;3.10;;;4.70;99.90;;;;;;5006032;28;20179;-73
2022/02/01 04:28:33;;;;;;;10.83;3.53;;;4.80;99.90;;;;;;5023625;28;20739;-73
2022/02/01 04:30:58;;;;;;;14.57;4.10;;;4.80;99.90;;;;;;5023726;28;20210;-73
2022/02/01 04:33:24;;;;;;;7.30;3.07;;;4.80;99.90;;;;;;5023298;28;20183;-72
2022/02/01 04:35:49;;;;;;;7.27;2.67;;;4.90;99.90;;;;;;5023811;28;20261;-73
2022/02/01 04:38:15;;;;;;;6.60;2.60;;;4.90;99.90;;;;;;5023640;28;20179;-73
2022/02/01 04:40:41;;;;;;;7.90;2.80;;;4.80;99.90;;;;;;5023492;28;20203;-73
2022/02/01 04:43:07;;;;;;;10.47;2.97;;;4.80;99.90;;;;;;5023210;28;20180;-74
2022/02/01 04:45:33;;;;;;;8.00;3.30;;;4.90;99.90;;;;;;5023729;28;20533;-72
2022/02/01 04:47:58;;;;;;;13.40;4.73;;;5.00;99.90;;;;;;5023402;28;20448;-72
2022/02/01 04:50:26;;;;;;;11.40;3.13;;;5.10;99.90;;;;;;5023197;28;20207;-72
2022/02/01 04:52:54;;;;;;;9.20;3.30;;;5.20;99.90;;;;;;5023504;28;20182;-72
2022/02/01 04:55:22;;;;;;;7.90;3.00;;;5.00;99.90;;;;;;5022873;28;20556;-72
2022/02/01 04:57:55;;;;;;;7.10;2.80;;;5.00;99.90;;;;;;5005354;28;20418;-72
2022/02/01 05:00:23;;;;;;;8.50;3.50;;;5.00;99.90;;;;;;5022962;28;20414;-72
2022/02/01 05:02:49;;;;;;;5.13;2.60;;;5.00;99.90;;;;;;5023518;28;20414;-72
2022/02/01 05:05:15;;;;;;;10.00;3.03;;;5.00;99.90;;;;;;5023107;28;20452;-72
2022/02/01 05:07:40;;;;;;;6.10;2.30;;;5.00;99.90;;;;;;5023236;28;20262;-72
2022/02/01 05:10:07;;;;;;;8.33;3.67;;;5.00;99.90;;;;;;5025629;28;20635;-72
2022/02/01 05:12:36;;;;;;;11.73;3.43;;;4.90;99.90;;;;;;5008908;28;20346;-72
2022/02/01 05:15:07;;;;;;;8.50;3.03;;;4.80;99.90;;;;;;5026783;28;20442;-72
2022/02/01 05:17:39;;;;;;;14.30;3.90;;;4.70;99.90;;;;;;5009127;28;20418;-72
2022/02/01 05:20:25;;;;;;;8.73;3.30;;;4.70;99.90;;;;;;5026685;28;20417;-72
2022/02/01 05:22:50;;;;;;;10.80;3.60;;;4.70;99.90;;;;;;5026170;28;20411;-72
2022/02/01 05:25:16;;;;;;;14.07;3.10;;;4.70;99.90;;;;;;5026161;28;20444;-73
2022/02/01 05:27:41;;;;;;;12.30;4.30;;;4.60;99.90;;;;;;5026607;28;20179;-72
2022/02/01 05:30:09;;;;;;;16.23;3.67;;;4.60;99.90;;;;;;5026047;28;20234;-73
2022/02/01 05:32:35;;;;;;;9.77;3.80;;;4.60;99.90;;;;;;5008507;28;20195;-73
2022/02/01 05:35:01;;;;;;;14.67;3.87;;;4.70;99.90;;;;;;5035376;22;20500;-71
2022/02/01 05:37:27;;;;;;;7.10;2.40;;;4.60;99.90;;;;;;5047363;28;20760;-75
2022/02/01 05:39:52;;;;;;;9.43;3.33;;;4.50;99.90;;;;;;5048512;28;20669;-72
2022/02/01 05:42:24;;;;;;;8.30;3.47;;;4.60;99.90;;;;;;5047379;28;20443;-73
2022/02/01 05:44:50;;;;;;;14.53;4.40;;;4.60;99.90;;;;;;5046429;28;20202;-74
2022/02/01 05:47:15;;;;;;;8.33;3.07;;;4.60;99.90;;;;;;5046945;28;20414;-71
2022/02/01 05:49:42;;;;;;;12.63;3.13;;;4.70;99.90;;;;;;5045337;28;20209;-70
2022/02/01 05:52:08;;;;;;;8.20;2.80;;;4.60;99.90;;;;;;5046798;28;20186;-70
2022/02/01 05:54:34;;;;;;;11.13;3.10;;;4.60;99.90;;;;;;5046296;28;20425;-72
2022/02/01 05:56:59;;;;;;;9.90;3.10;;;4.60;99.90;;;;;;5028920;28;20178;-72
2022/02/01 05:59:25;;;;;;;15.27;3.00;;;4.70;99.90;;;;;;5046361;28;20185;-74
2022/02/01 06:01:50;;;;;;;14.53;2.70;;;4.60;99.90;;;;;;5046406;28;20183;-73
2022/02/01 06:04:16;;;;;;;10.17;4.13;;;4.60;99.90;;;;;;5046644;28;20629;-71
2022/02/01 06:06:42;;;;;;;7.37;2.90;;;4.60;99.90;;;;;;5028226;28;20544;-71
2022/02/01 06:09:08;;;;;;;9.40;3.10;;;4.60;99.90;;;;;;5046556;28;20553;-70
2022/02/01 06:11:33;;;;;;;11.77;3.00;;;4.50;99.90;;;;;;5046476;28;20413;-72
2022/02/01 06:13:59;;;;;;;11.80;3.10;;;4.50;99.90;;;;;;5047522;28;20224;-71
2022/02/01 06:16:24;;;;;;;12.33;3.80;;;4.60;99.90;;;;;;5028999;28;20174;-71
2022/02/01 06:18:50;;;;;;;13.20;4.07;;;4.60;99.90;;;;;;5029890;28;20179;-71
2022/02/01 06:21:16;;;;;;;9.20;3.60;;;4.70;99.90;;;;;;5046887;28;20175;-70
2022/02/01 06:23:42;;;;;;;9.40;2.70;;;4.70;99.90;;;;;;5047457;28;20420;-71
2022/02/01 06:26:07;;;;;;;7.17;3.37;;;4.70;99.90;;;;;;5047275;28;20186;-71
2022/02/01 06:28:33;;;;;;;14.33;3.00;;;4.70;99.90;;;;;;5028947;28;20192;-72
2022/02/01 06:30:58;;;;;;;11.73;3.70;;;4.60;99.90;;;;;;5033464;28;20199;-73
2022/02/01 06:33:25;;;;;;;8.43;2.77;;;4.70;99.90;;;;;;5051845;28;20171;-72
2022/02/01 06:35:51;;;;;;;10.30;3.17;;;4.60;99.90;;;;;;5029622;28;20218;-70
2022/02/01 06:38:17;;;;;;;5.83;2.37;;;4.60;99.90;;;;;;5047067;28;20500;-70
2022/02/01 06:40:45;;;;;;;9.87;3.60;;;4.60;99.90;;;;;;5029219;28;21055;-71
2022/02/01 06:43:12;;;;;;;14.70;3.50;;;4.70;99.90;;;;;;5047145;28;20243;-69
2022/02/01 06:45:37;;;;;;;15.27;3.30;;;4.60;99.90;;;;;;5045092;28;20465;-71
2022/02/01 06:48:03;;;;;;;10.00;3.03;;;4.70;99.90;;;;;;5045497;28;20413;-71
2022/02/01 06:50:29;;;;;;;8.70;3.47;;;4.80;99.90;;;;;;5044998;28;20190;-69
2022/02/01 06:52:57;;;;;;;7.37;3.00;;;4.70;99.90;;;;;;5045125;28;20189;-71
2022/02/01 06:55:34;;;;;;;11.70;3.10;;;4.70;99.90;;;;;;5045245;28;20372;-71
2022/02/01 06:58:01;;;;;;;11.93;3.90;;;4.90;99.90;;;;;;5045220;28;20440;-70
2022/02/01 07:00:27;;;;;;;12.87;3.70;;;5.00;99.90;;;;;;5045048;28;20507;-74
2022/02/01 07:02:53;;;;;;;6.83;2.90;;;5.10;99.90;;;;;;5045412;28;20571;-71
2022/02/01 07:05:18;;;;;;;8.03;3.30;;;4.80;99.90;;;;;;5043957;28;20512;-72
2022/02/01 07:07:44;;;;;;;19.53;4.20;;;4.80;99.90;;;;;;5044930;28;20554;-72
2022/02/01 07:10:10;;;;;;;12.03;3.00;;;4.70;99.90;;;;;;5044685;28;20199;-71
2022/02/01 07:12:36;;;;;;;9.00;3.30;;;4.70;99.90;;;;;;5044951;28;20607;-74
2022/02/01 07:15:01;;;;;;;9.13;3.30;;;4.60;99.90;;;;;;5044558;28;20771;-70
2022/02/01 07:17:27;;;;;;;20.37;3.83;;;4.70;99.90;;;;;;5046628;28;20171;-71
2022/02/01 07:19:52;;;;;;;13.30;2.97;;;4.70;99.90;;;;;;5044682;28;20171;-72
2022/02/01 07:22:18;;;;;;;9.60;3.43;;;4.60;99.90;;;;;;5044264;28;20174;-72
2022/02/01 07:25:00;;;;;;;12.30;3.63;;;4.50;99.90;;;;;;5044362;28;20313;-71
2022/02/01 07:27:40;;;;;;;10.10;3.70;;;4.70;99.90;;;;;;5043949;28;20899;-67
2022/02/01 07:30:07;;;;;;;7.30;2.90;;;5.00;99.90;;;;;;5044773;28;20201;-70
2022/02/01 07:32:35;;;;;;;7.40;2.90;;;4.90;99.90;;;;;;5046132;28;20417;-72
2022/02/01 07:35:01;;;;;;;8.40;2.63;;;4.90;99.90;;;;;;5045540;28;20484;-69
2022/02/01 07:37:27;;;;;;;17.17;3.53;;;4.80;99.90;;;;;;5044462;28;20463;-72
2022/02/01 07:39:52;;;;;;;9.53;3.30;;;4.70;99.90;;;;;;5044414;28;20417;-71
2022/02/01 07:42:18;;;;;;;6.60;2.77;;;4.80;99.90;;;;;;5044515;28;20200;-71
2022/02/01 07:44:44;;;;;;;7.77;3.30;;;4.80;99.90;;;;;;5043937;28;20210;-71
2022/02/01 07:47:17;;;;;;;7.17;2.90;;;4.80;99.90;;;;;;5044374;28;20214;-71
2022/02/01 07:49:43;;;;;;;12.50;3.00;;;4.80;99.90;;;;;;5025699;28;20456;-70
2022/02/01 07:52:08;;;;;;;6.30;2.80;;;4.80;99.90;;;;;;5043748;28;20451;-74
2022/02/01 07:54:34;;;;;;;6.93;2.40;;;4.90;99.90;;;;;;5044740;28;20198;-71
2022/02/01 07:56:59;;;;;;;13.10;3.80;;;4.90;99.90;;;;;;5044681;28;20171;-73
2022/02/01 07:59:25;;;;;;;9.17;3.00;;;4.70;99.90;;;;;;5044346;28;20167;-71
2022/02/01 08:01:51;;;;;;;9.50;3.20;;;4.90;99.90;;;;;;5044363;28;20262;-70
2022/02/01 08:04:16;;;;;;;9.60;3.20;;;4.80;99.90;;;;;;5026457;28;20256;-72
2022/02/01 08:06:42;;;;;;;9.00;2.80;;;4.90;99.90;;;;;;5044243;28;20183;-72
2022/02/01 08:09:18;;;;;;;11.60;4.27;;;4.90;99.90;;;;;;5044244;28;20206;-70
2022/02/01 08:11:43;;;;;;;10.63;3.33;;;5.00;99.90;;;;;;5025973;28;20182;-74
2022/02/01 08:16:58;;;;;;;4.90;2.90;;;4.90;99.90;;;;;;5044121;28;20166;-72
2022/02/01 08:21:52;;;;;;;9.23;3.23;;;5.20;99.90;;;;;;5043684;28;20933;-70
2022/02/01 08:24:18;;;;;;;11.40;3.00;;;5.30;99.90;;;;;;5025157;28;20204;-72
2022/02/01 08:26:44;;;;;;;7.40;2.40;;;5.40;99.90;;;;;;5043323;28;20413;-71
2022/02/01 08:29:09;;;;;;;10.13;3.20;;;5.50;99.90;;;;;;5043597;28;20952;-70
2022/02/01 08:31:35;;;;;;;8.30;3.50;;;5.70;99.90;;;;;;5043245;28;20706;-68
2022/02/01 08:34:02;;;;;;;10.47;3.37;;;5.30;99.90;;;;;;5043523;28;20191;-72
2022/02/01 08:36:27;;;;;;;10.60;3.03;;;5.20;99.90;;;;;;5043255;28;20500;-71
2022/02/01 08:38:54;;;;;;;11.70;4.40;;;5.20;99.90;;;;;;5044504;28;20416;-71
2022/02/01 08:41:20;;;;;;;7.23;3.20;;;5.10;99.90;;;;;;5042964;28;20185;-73
2022/02/01 08:43:45;;;;;;;9.17;3.40;;;5.20;99.90;;;;;;5026232;28;20417;-71
2022/02/01 08:46:12;;;;;;;12.03;3.50;;;5.40;99.90;;;;;;5047495;28;20261;-70
2022/02/01 08:48:37;;;;;;;5.00;2.50;;;5.40;99.90;;;;;;5047265;28;20179;-69
2022/02/01 08:51:07;;;;;;;5.80;2.57;;;5.70;99.90;;;;;;5047571;28;20442;-70
2022/02/01 08:53:46;;;;;;;11.90;3.23;;;5.70;99.90;;;;;;5029517;28;20232;-73
2022/02/01 08:57:21;;;;;;;8.23;2.57;;;5.90;99.90;;;;;;5029595;28;20413;-71
2022/02/01 08:58:58;;;;;;;7.10;3.03;;;6.00;99.90;;;;;;5047624;28;20412;-69
2022/02/01 09:01:23;;;;;;;6.70;2.80;;;6.00;99.90;;;;;;5029779;28;21051;-70
2022/02/01 09:03:49;;;;;;;8.63;2.83;;;6.10;99.90;;;;;;5047124;28;20197;-69
2022/02/01 09:06:15;;;;;;;6.20;2.60;;;6.00;99.90;;;;;;5046994;28;20412;-69
2022/02/01 09:08:40;;;;;;;5.77;2.63;;;5.80;99.90;;;;;;5028582;28;20293;-69
2022/02/01 09:11:08;;;;;;;7.97;3.00;;;5.90;99.90;;;;;;5028959;28;20800;-73
2022/02/01 09:13:33;;;;;;;5.60;2.80;;;5.70;99.90;;;;;;5047262;28;20182;-70
2022/02/01 09:15:59;;;;;;;4.40;3.17;;;5.80;99.90;;;;;;5046524;28;20424;-72
2022/02/01 09:18:25;;;;;;;9.37;3.53;;;5.90;99.90;;;;;;5047119;28;20243;-71
2022/02/01 09:20:52;;;;;;;6.50;3.07;;;5.90;99.90;;;;;;5047421;28;20192;-71
2022/02/01 09:23:17;;;;;;;5.00;2.43;;;5.90;99.90;;;;;;5031137;28;21357;-70
2022/02/01 09:25:44;;;;;;;6.00;3.30;;;5.80;99.90;;;;;;5048396;28;20536;-71
2022/02/01 09:28:09;;;;;;;9.80;2.97;;;5.80;99.90;;;;;;5048218;28;20184;-70
2022/02/01 09:30:35;;;;;;;7.27;3.40;;;6.00;99.90;;;;;;5046504;28;20445;-73
2022/02/01 09:33:01;;;;;;;6.33;3.50;;;6.00;99.90;;;;;;5046327;28;20697;-73
2022/02/01 09:35:27;;;;;;;3.87;2.60;;;6.20;99.90;;;;;;5046037;28;20540;-74
2022/02/01 09:37:53;;;;;;;6.60;2.30;;;6.20;99.90;;;;;;5045953;28;20189;-73
2022/02/01 09:40:19;;;;;;;4.80;2.90;;;5.80;99.90;;;;;;5046070;28;20416;-70
2022/02/01 09:42:44;;;;;;;5.87;2.43;;;5.80;99.90;;;;;;5046594;28;20202;-73
2022/02/01 09:45:11;;;;;;;4.30;2.30;;;5.80;99.90;;;;;;5047215;28;20289;-72
2022/02/01 09:47:41;;;;;;;7.20;2.73;;;6.10;99.90;;;;;;5030090;28;20244;-72
2022/02/01 09:50:07;;;;;;;8.23;2.27;;;6.00;99.90;;;;;;5029126;28;20448;-70
2022/02/01 09:52:34;;;;;;;7.70;2.40;;;6.10;99.90;;;;;;5029844;28;20902;-71
2022/02/01 09:55:02;;;;;;;2.83;2.07;;;6.20;99.90;;;;;;5031420;28;20465;-72
2022/02/01 09:57:28;;;;;;;7.23;2.30;;;6.20;99.90;;;;;;5031827;28;20439;-72
2022/02/01 09:59:57;;;;;;;5.57;2.10;;;6.20;99.90;;;;;;5045591;28;20510;-70
2022/02/01 10:02:35;;;;;;;6.93;3.10;;;5.90;99.90;;;;;;5027502;28;20425;-70
2022/02/01 10:05:10;;;;;;;6.90;2.40;;;5.80;99.90;;;;;;5045791;28;20440;-73
2022/02/01 10:08:03;;;;;;;7.10;2.40;;;5.90;99.90;;;;;;5028400;28;20932;-71
2022/02/01 10:10:30;;;;;;;4.83;2.17;;;6.10;99.90;;;;;;5041854;28;20461;-71
2022/02/01 10:13:13;;;;;;;11.30;2.70;;;6.20;99.90;;;;;;5048560;28;20502;-70
2022/02/01 10:15:40;;;;;;;7.77;2.40;;;6.30;99.90;;;;;;5048242;28;20444;-71
2022/02/01 10:18:08;;;;;;;5.80;2.33;;;6.50;99.90;;;;;;5046776;28;20418;-70
2022/02/01 10:20:43;;;;;;;10.30;3.03;;;6.20;99.90;;;;;;5045999;28;20429;-70
2022/02/01 10:23:16;;;;;;;13.07;3.10;;;6.00;99.90;;;;;;5046617;28;21090;-73
2022/02/01 10:25:46;;;;;;;7.77;2.80;;;6.20;99.90;;;;;;5046368;28;20481;-73
2022/02/01 10:28:12;;;;;;;5.10;2.03;;;6.10;99.90;;;;;;5046389;28;20432;-71
2022/02/01 10:30:43;;;;;;;3.90;2.20;;;6.30;99.90;;;;;;5046411;28;20457;-69
2022/02/01 10:35:55;;;;;;;10.73;2.30;;;6.60;99.90;;;;;;5046350;28;20476;-71
2022/02/01 10:38:21;;;;;;;6.10;2.17;;;6.80;99.90;;;;;;5044874;28;20405;-70
2022/02/01 10:40:49;;;;;;;6.37;2.30;;;7.10;99.90;;;;;;5044998;28;20426;-71
2022/02/01 10:43:32;;;;;;;3.10;1.83;;;7.20;99.90;;;;;;5045805;28;20911;-70
2022/02/01 10:46:12;;;;;;;10.90;3.03;;;7.30;99.90;;;;;;5045918;28;20445;-69
2022/02/01 10:48:44;;;;;;;5.93;2.17;;;7.30;99.90;;;;;;5046288;28;20422;-69
2022/02/01 10:51:20;;;;;;;5.53;2.40;;;6.90;99.90;;;;;;5046892;28;20521;-69
2022/02/01 10:53:46;;;;;;;5.20;2.60;;;6.70;99.90;;;;;;5028728;28;20409;-70
2022/02/01 10:56:17;;;;;;;6.30;3.07;;;6.80;99.90;;;;;;5049004;28;20787;-71
2022/02/01 10:58:45;;;;;;;5.77;2.30;;;6.50;99.90;;;;;;5052197;28;20456;-70
2022/02/01 11:01:11;;;;;;;5.80;2.00;;;6.60;99.90;;;;;;5033617;28;20429;-71
2022/02/01 11:03:42;;;;;;;6.53;2.37;;;6.60;99.90;;;;;;5048270;28;20428;-70
2022/02/01 11:06:10;;;;;;;4.80;1.87;;;6.40;99.90;;;;;;5044979;28;20421;-70
2022/02/01 11:08:39;;;;;;;5.30;1.90;;;6.50;99.90;;;;;;5044816;28;20896;-71
2022/02/01 11:11:05;;;;;;;6.17;2.53;;;6.60;99.90;;;;;;5045448;28;20477;-74
2022/02/01 11:13:39;;;;;;;4.30;2.10;;;6.70;99.90;;;;;;5044763;28;20414;-73
2022/02/01 11:16:06;;;;;;;6.30;1.90;;;6.60;99.90;;;;;;5045047;28;20410;-71
2022/02/01 11:18:32;;;;;;;4.60;1.87;;;6.60;99.90;;;;;;5048982;28;20417;-74
2022/02/01 11:21:10;;;;;;;8.43;2.63;;;6.60;99.90;;;;;;5047673;28;20884;-71
2022/02/01 11:23:47;;;;;;;5.50;2.10;;;6.30;99.90;;;;;;5046333;28;20931;-72
2022/02/01 11:26:54;;;;;;;4.60;2.20;;;6.40;99.90;;;;;;5045925;28;20535;-74
2022/02/01 11:31:58;;;;;;;5.07;1.77;;;6.80;99.90;;;;;;5046816;28;20401;-73
2022/02/01 11:34:38;;;;;;;8.00;2.20;;;6.90;99.90;;;;;;5029077;28;20461;-71
2022/02/01 11:37:09;;;;;;;3.83;1.90;;;7.00;99.90;;;;;;5044096;28;20704;-73
2022/02/01 11:39:53;;;;;;;9.80;2.30;;;7.10;99.90;;;;;;5043877;28;20408;-72
2022/02/01 11:42:21;;;;;;;4.63;1.83;;;6.90;99.90;;;;;;5026110;28;20417;-73
2022/02/01 11:45:05;;;;;;;8.90;3.07;;;7.00;99.90;;;;;;5043863;28;20453;-72
2022/02/01 11:47:38;;;;;;;6.10;2.60;;;6.70;99.90;;;;;;5044101;28;20465;-71
2022/02/01 11:50:15;;;;;;;5.13;2.40;;;6.60;99.90;;;;;;5043794;28;20460;-74
2022/02/01 11:52:53;;;;;;;5.83;2.80;;;6.50;99.90;;;;;;5043975;28;20414;-72
2022/02/01 11:55:23;;;;;;;4.30;2.30;;;6.60;99.90;;;;;;5026948;28;20437;-71
2022/02/01 11:57:51;;;;;;;4.30;1.97;;;6.50;99.90;;;;;;5044658;28;20436;-71
2022/02/01 12:00:19;;;;;;;4.70;2.03;;;6.40;99.90;;;;;;5045580;28;20415;-71
2022/02/01 12:02:50;;;;;;;6.50;2.40;;;6.50;99.90;;;;;;5043917;28;20433;-72
2022/02/01 12:05:29;;;;;;;7.30;2.43;;;6.50;99.90;;;;;;5043977;28;20471;-72
2022/02/01 12:08:18;;;;;;;6.80;2.30;;;6.30;99.90;;;;;;5043702;28;20414;-72
2022/02/01 12:10:50;;;;;;;6.83;2.00;;;6.40;99.90;;;;;;5025984;28;20678;-72
2022/02/01 12:13:26;;;;;;;5.30;2.30;;;6.40;99.90;;;;;;5043003;28;20429;-72
2022/02/01 12:16:00;;;;;;;5.10;2.83;;;6.40;99.90;;;;;;5043503;28;20426;-72
2022/02/01 12:19:04;;;;;;;4.37;2.00;;;6.30;99.90;;;;;;5045861;28;20408;-72
2022/02/01 12:21:45;;;;;;;4.07;1.83;;;6.10;99.90;;;;;;5003717;28;20835;-72
2022/02/01 12:24:12;;;;;;;7.10;2.37;;;5.90;99.90;;;;;;5047496;28;20483;-70
2022/02/01 12:26:40;;;;;;;2.97;2.03;;;5.80;99.90;;;;;;5047135;28;20825;-71
2022/02/01 12:29:12;;;;;;;5.90;2.30;;;6.00;99.90;;;;;;5047533;28;20921;-71
2022/02/01 12:31:40;;;;;;;4.30;1.70;;;5.90;99.90;;;;;;5047533;28;20899;-71
2022/02/01 12:34:13;;;;;;;8.50;3.57;;;6.00;99.90;;;;;;5047246;28;20459;-73
2022/02/01 12:36:42;;;;;;;3.60;1.53;;;6.00;99.90;;;;;;5047454;28;20447;-69
2022/02/01 12:39:12;;;;;;;3.23;2.00;;;6.10;99.90;;;;;;5047322;28;20411;-70
2022/02/01 12:41:59;;;;;;;5.30;1.53;;;6.20;99.90;;;;;;5047332;28;20440;-72
2022/02/01 12:47:23;;;;;;;8.10;1.80;;;6.00;99.90;;;;;;5018502;28;20417;-72
2022/02/01 12:49:54;;;;;;;4.70;1.60;;;6.20;99.90;;;;;;5047051;28;20474;-69
2022/02/01 12:52:29;;;;;;;2.97;1.87;;;6.10;99.90;;;;;;5028997;28;20427;-71
2022/02/01 12:55:05;;;;;;;3.87;1.57;;;6.20;99.90;;;;;;5046865;28;20436;-71
2022/02/01 12:57:32;;;;;;;3.70;1.70;;;6.30;99.90;;;;;;5029035;28;20467;-69
2022/02/01 13:00:20;;;;;;;2.57;1.80;;;6.30;99.90;;;;;;5029251;28;20417;-75
2022/02/01 13:02:46;;;;;;;3.60;1.93;;;6.20;99.90;;;;;;5028941;28;20784;-71
2022/02/01 13:05:14;;;;;;;4.77;1.60;;;6.20;99.90;;;;;;5046148;28;20441;-72
2022/02/01 13:16:44;;;;;;;3.63;1.37;;;5.90;99.90;;;;;;5046467;28;20462;-76
2022/02/01 13:21:39;;;;;;;4.60;1.70;;;6.20;99.90;;;;;;5046294;28;20416;-72
2022/02/01 13:24:06;;;;;;;2.73;1.30;;;6.40;99.90;;;;;;5045732;28;20445;-73
2022/02/01 13:26:34;;;;;;;2.53;1.67;;;6.60;99.90;;;;;;5046495;28;20414;-73
2022/02/01 13:29:05;;;;;;;3.73;1.73;;;6.60;99.90;;;;;;5045453;28;20829;-74
2022/02/01 13:31:36;;;;;;;3.60;1.57;;;6.60;99.90;;;;;;5028540;28;20510;-72
2022/02/01 13:34:06;;;;;;;2.10;1.30;;;6.50;99.90;;;;;;5046441;28;20482;-74
2022/02/01 13:36:58;;;;;;;3.37;1.43;;;6.30;99.90;;;;;;5047772;28;20507;-74
2022/02/01 13:39:37;;;;;;;1.73;1.20;;;6.10;99.90;;;;;;5053049;28;20416;-72
2022/02/01 13:42:10;;;;;;;1.97;1.53;;;6.20;99.90;;;;;;5045940;28;20405;-71
2022/02/01 13:44:36;;;;;;;2.37;1.50;;;5.90;99.90;;;;;;5045993;28;20444;-72
2022/02/01 13:47:06;;;;;;;3.73;1.60;;;6.10;99.90;;;;;;5046379;28;20413;-73
2022/02/01 13:49:33;;;;;;;3.47;1.47;;;5.90;99.90;;;;;;5046729;28;20262;-73
2022/02/01 13:51:59;;;;;;;3.50;2.20;;;5.70;99.90;;;;;;5028575;28;20934;-73
2022/02/01 13:54:36;;;;;;;4.33;1.97;;;6.10;99.90;;;;;;5026956;28;20533;-72
2022/02/01 13:57:12;;;;;;;4.83;1.80;;;5.90;99.90;;;;;;5045812;28;20524;-72
2022/02/01 13:59:38;;;;;;;3.53;1.80;;;5.80;99.90;;;;;;5046295;28;20405;-72
2022/02/01 14:02:10;;;;;;;4.90;2.07;;;5.70;99.90;;;;;;5045916;28;20429;-71
2022/02/01 14:04:54;;;;;;;5.43;2.00;;;5.70;99.90;;;;;;5027632;28;20206;-73
2022/02/01 14:26:39;;;;;;;2.80;2.30;;;5.40;99.90;;;;;;5045498;28;20413;-70
2022/02/01 14:29:07;;;;;;;2.33;1.87;;;5.30;99.90;;;;;;5045395;28;20193;-72
2022/02/01 14:34:37;;;;;;;5.60;1.97;;;5.40;99.90;;;;;;4963679;28;20475;-70
2022/02/01 14:37:10;;;;;;;3.30;2.40;;;5.50;99.90;;;;;;5030112;28;20441;-74
2022/02/01 14:45:05;;;;;;;4.43;2.30;;;5.40;99.90;;;;;;5045446;28;20424;-73
2022/02/01 14:47:31;;;;;;;5.33;2.40;;;5.30;99.90;;;;;;5045772;28;20421;-73
2022/02/01 14:49:57;;;;;;;3.33;1.57;;;5.20;99.90;;;;;;5045988;28;20467;-72
2022/02/01 14:52:23;;;;;;;4.00;1.80;;;5.20;99.90;;;;;;5027550;28;20627;-73
2022/02/01 14:54:52;;;;;;;3.93;2.10;;;5.00;99.90;;;;;;5045350;28;20482;-72
2022/02/01 15:13:35;;;;;;;5.13;2.10;;;4.50;99.90;;;;;;5044433;28;20412;-72
2022/02/01 15:16:01;;;;;;;2.00;1.80;;;4.60;99.90;;;;;;5043889;28;20424;-71
2022/02/01 15:18:27;;;;;;;3.80;2.53;;;4.50;99.90;;;;;;5044363;28;20409;-73